Time;durP1;ratioP1;P1;durP2;ratioP2;P2;SDS_P1;SDS_P2;PMS_P1;PMS_P2;Temp;Humidity;BMP_temperature;BMP_pressure;BME280_temperature;BME280_humidity;BME280_pressure;Samples;Min_cycle;Max_cycle;Signal;HPM_P1;HPM_P2
2022/06/21 00:01:51;;;;;;;0.40;0.40;;;;;;;;;;4916455;29;20225;-82
2022/06/21 00:04:20;;;;;;;0.40;0.40;;;;;;;;;;4890206;29;20248;-82
2022/06/21 00:06:49;;;;;;;8.70;2.93;;;;;;;;;;4913179;29;20220;-81
2022/06/21 00:09:20;;;;;;;0.40;0.40;;;;;;;;;;4891379;29;20222;-82
2022/06/21 00:11:49;;;;;;;0.40;0.40;;;;;;;;;;4928739;29;20211;-82
2022/06/21 00:14:17;;;;;;;0.40;0.40;;;;;;;;;;4907866;29;20230;-82
2022/06/21 00:16:45;;;;;;;1.10;1.10;;;;;;;;;;4881982;29;20217;-82
2022/06/21 00:19:17;;;;;;;0.40;0.40;;;;;;;;;;4904745;29;20198;-82
2022/06/21 00:21:46;;;;;;;0.40;0.40;;;;;;;;;;4890911;29;20230;-82
2022/06/21 00:24:16;;;;;;;0.40;0.40;;;;;;;;;;4915656;29;20209;-82
2022/06/21 00:26:47;;;;;;;1.03;1.03;;;;;;;;;;4908019;29;20239;-81
2022/06/21 00:29:16;;;;;;;0.50;0.50;;;;;;;;;;4900278;29;20223;-82
2022/06/21 00:31:47;;;;;;;1.23;1.23;;;;;;;;;;4900647;29;20209;-82
2022/06/21 00:34:16;;;;;;;2.30;1.30;;;;;;;;;;4902266;29;20218;-82
2022/06/21 00:36:45;;;;;;;1.03;1.03;;;;;;;;;;4913226;29;20210;-82
2022/06/21 00:39:15;;;;;;;1.63;1.53;;;;;;;;;;4925969;29;20210;-82
2022/06/21 00:41:45;;;;;;;1.13;1.13;;;;;;;;;;4913098;29;20211;-82
2022/06/21 00:44:17;;;;;;;1.27;1.17;;;;;;;;;;4887379;29;20254;-82
2022/06/21 00:46:47;;;;;;;0.87;0.87;;;;;;;;;;4916274;29;20213;-82
2022/06/21 00:49:18;;;;;;;0.70;0.70;;;;;;;;;;4896761;29;20258;-82
2022/06/21 00:51:47;;;;;;;0.80;0.80;;;;;;;;;;4910004;29;20262;-82
2022/06/21 00:54:19;;;;;;;0.83;0.83;;;;;;;;;;4897809;29;20205;-82
2022/06/21 00:56:52;;;;;;;0.87;0.87;;;;;;;;;;4888986;29;20201;-82
2022/06/21 00:59:25;;;;;;;2.37;1.10;;;;;;;;;;4886288;29;20209;-82
2022/06/21 01:01:55;;;;;;;1.27;1.23;;;;;;;;;;4916069;29;20211;-82
2022/06/21 01:04:31;;;;;;;0.50;0.50;;;;;;;;;;4894692;29;20234;-81
2022/06/21 01:07:01;;;;;;;1.80;1.60;;;;;;;;;;4909162;29;20197;-82
2022/06/21 01:09:33;;;;;;;0.50;0.50;;;;;;;;;;4907099;29;20203;-82
2022/06/21 01:12:05;;;;;;;1.07;1.03;;;;;;;;;;4920571;29;20207;-82
2022/06/21 01:14:36;;;;;;;0.50;0.50;;;;;;;;;;4903015;29;20214;-82
2022/06/21 01:17:05;;;;;;;0.60;0.60;;;;;;;;;;4916243;29;20201;-82
2022/06/21 01:19:37;;;;;;;0.87;0.87;;;;;;;;;;4915704;29;20318;-82
2022/06/21 01:22:13;;;;;;;0.63;0.63;;;;;;;;;;4900754;29;20207;-82
2022/06/21 01:24:44;;;;;;;0.40;0.40;;;;;;;;;;4887377;29;20209;-82
2022/06/21 01:27:14;;;;;;;0.40;0.40;;;;;;;;;;4894141;29;20242;-81
2022/06/21 01:29:43;;;;;;;0.73;0.73;;;;;;;;;;4886321;29;20213;-82
2022/06/21 01:32:12;;;;;;;0.60;0.60;;;;;;;;;;4895491;29;20279;-81
2022/06/21 01:34:40;;;;;;;1.17;1.17;;;;;;;;;;4913219;29;20221;-82
2022/06/21 01:37:12;;;;;;;0.50;0.50;;;;;;;;;;4916216;29;20217;-81
2022/06/21 01:39:43;;;;;;;0.50;0.50;;;;;;;;;;4913439;29;20215;-83
2022/06/21 01:42:13;;;;;;;0.50;0.50;;;;;;;;;;4915556;29;20304;-82
2022/06/21 01:44:47;;;;;;;0.50;0.50;;;;;;;;;;4897314;29;20441;-82
2022/06/21 01:47:17;;;;;;;0.97;0.97;;;;;;;;;;4887677;29;20213;-82
2022/06/21 01:49:47;;;;;;;0.53;0.53;;;;;;;;;;4900934;29;20208;-82
2022/06/21 01:52:18;;;;;;;0.83;0.83;;;;;;;;;;4886730;29;20241;-82
2022/06/21 01:54:51;;;;;;;0.50;0.50;;;;;;;;;;4912230;29;20219;-82
2022/06/21 01:57:20;;;;;;;1.03;1.03;;;;;;;;;;4899659;29;20208;-82
2022/06/21 01:59:51;;;;;;;0.50;0.50;;;;;;;;;;4915529;29;20212;-82
2022/06/21 02:04:57;;;;;;;0.50;0.50;;;;;;;;;;4950856;23;20237;-82
2022/06/21 02:07:29;;;;;;;0.70;0.70;;;;;;;;;;4942192;28;20231;-82
2022/06/21 02:10:00;;;;;;;0.50;0.50;;;;;;;;;;4942753;28;20263;-82
2022/06/21 02:12:30;;;;;;;0.40;0.40;;;;;;;;;;4921461;29;20209;-82
2022/06/21 02:15:01;;;;;;;2.13;1.60;;;;;;;;;;4937853;29;20202;-82
2022/06/21 02:17:32;;;;;;;0.70;0.70;;;;;;;;;;4937058;29;20200;-82
2022/06/21 02:20:03;;;;;;;0.50;0.50;;;;;;;;;;4936113;29;20199;-82
2022/06/21 02:22:32;;;;;;;0.80;0.80;;;;;;;;;;4949420;29;20207;-82
2022/06/21 02:25:01;;;;;;;3.50;2.33;;;;;;;;;;4936907;29;20199;-82
2022/06/21 02:27:32;;;;;;;0.67;0.67;;;;;;;;;;4908379;29;20208;-82
2022/06/21 02:30:03;;;;;;;0.80;0.80;;;;;;;;;;4952393;28;20278;-82
2022/06/21 02:32:33;;;;;;;0.50;0.50;;;;;;;;;;4920823;29;20339;-82
2022/06/21 02:35:06;;;;;;;0.80;0.80;;;;;;;;;;4936860;29;20216;-82
2022/06/21 02:37:35;;;;;;;1.53;1.53;;;;;;;;;;4937848;29;20290;-82
2022/06/21 02:40:06;;;;;;;7.40;2.30;;;;;;;;;;4952731;28;20203;-82
2022/06/21 02:42:35;;;;;;;0.83;0.83;;;;;;;;;;4920738;29;20204;-82
2022/06/21 02:45:07;;;;;;;0.90;0.90;;;;;;;;;;4952443;28;20201;-82
2022/06/21 02:47:38;;;;;;;3.27;2.73;;;;;;;;;;4949874;29;20223;-82
2022/06/21 02:50:11;;;;;;;5.90;2.93;;;;;;;;;;4936766;29;20208;-83
2022/06/21 02:52:40;;;;;;;2.10;2.00;;;;;;;;;;4923207;29;20239;-82
2022/06/21 02:55:25;;;;;;;0.63;0.63;;;;;;;;;;4962390;28;20219;-82
2022/06/21 02:57:57;;;;;;;4.60;3.30;;;;;;;;;;4950507;29;20208;-82
2022/06/21 03:00:27;;;;;;;0.60;0.60;;;;;;;;;;4951867;28;20227;-82
2022/06/21 03:02:56;;;;;;;1.10;1.10;;;;;;;;;;4965211;28;20230;-82
2022/06/21 03:05:26;;;;;;;0.67;0.67;;;;;;;;;;4936466;29;20210;-82
2022/06/21 03:07:57;;;;;;;0.70;0.70;;;;;;;;;;4952131;28;20242;-82
2022/06/21 03:10:27;;;;;;;0.90;0.90;;;;;;;;;;4951956;28;20201;-82
2022/06/21 03:13:05;;;;;;;0.87;0.87;;;;;;;;;;4937000;29;20235;-82
2022/06/21 03:15:35;;;;;;;2.30;2.20;;;;;;;;;;4959540;28;20222;-82
2022/06/21 03:18:06;;;;;;;1.23;1.13;;;;;;;;;;4940537;29;20211;-82
2022/06/21 03:20:35;;;;;;;0.40;0.40;;;;;;;;;;4952050;28;20203;-82
2022/06/21 03:23:05;;;;;;;7.17;4.20;;;;;;;;;;4950584;29;20204;-82
2022/06/21 03:25:39;;;;;;;0.80;0.80;;;;;;;;;;4920497;29;20216;-82
2022/06/21 03:28:21;;;;;;;0.53;0.53;;;;;;;;;;4919843;29;20219;-82
2022/06/21 03:30:53;;;;;;;0.77;0.77;;;;;;;;;;4919812;29;20326;-82
2022/06/21 03:33:21;;;;;;;2.63;2.00;;;;;;;;;;4936902;29;20208;-82
2022/06/21 03:35:51;;;;;;;0.87;0.87;;;;;;;;;;4943915;29;20211;-82
2022/06/21 03:38:20;;;;;;;0.63;0.63;;;;;;;;;;4942502;29;20289;-82
2022/06/21 03:43:36;;;;;;;1.40;1.30;;;;;;;;;;4952247;28;20219;-82
2022/06/21 03:46:09;;;;;;;0.70;0.70;;;;;;;;;;4938302;29;20202;-82
2022/06/21 03:48:39;;;;;;;3.67;1.80;;;;;;;;;;4957243;28;20203;-83
2022/06/21 03:51:10;;;;;;;0.90;0.90;;;;;;;;;;4949079;29;20212;-82
2022/06/21 03:53:42;;;;;;;0.90;0.90;;;;;;;;;;4934992;29;20246;-82
2022/06/21 03:56:15;;;;;;;1.80;1.80;;;;;;;;;;4951793;29;20200;-82
2022/06/21 03:58:48;;;;;;;0.77;0.77;;;;;;;;;;4954863;29;20286;-82
2022/06/21 04:01:20;;;;;;;2.63;2.43;;;;;;;;;;4922950;29;20208;-82
2022/06/21 04:03:51;;;;;;;1.30;1.30;;;;;;;;;;4950934;28;20295;-82
2022/06/21 04:06:23;;;;;;;1.27;1.27;;;;;;;;;;4951429;28;20207;-82
2022/06/21 04:08:55;;;;;;;2.10;2.00;;;;;;;;;;4951523;28;20256;-82
2022/06/21 04:11:26;;;;;;;0.83;0.83;;;;;;;;;;4922549;29;20204;-82
2022/06/21 04:13:58;;;;;;;0.90;0.90;;;;;;;;;;4936485;29;20212;-82
2022/06/21 04:16:31;;;;;;;1.93;1.77;;;;;;;;;;4952759;28;20223;-82
2022/06/21 04:19:01;;;;;;;2.00;1.90;;;;;;;;;;4970176;28;20236;-81
2022/06/21 04:21:32;;;;;;;0.50;0.50;;;;;;;;;;4955544;28;20240;-82
2022/06/21 04:24:02;;;;;;;1.50;1.50;;;;;;;;;;4919609;29;20200;-82
2022/06/21 04:26:34;;;;;;;1.63;1.53;;;;;;;;;;4934672;29;20215;-82
2022/06/21 04:29:05;;;;;;;1.23;1.23;;;;;;;;;;4936059;29;20208;-82
2022/06/21 04:31:38;;;;;;;1.70;1.13;;;;;;;;;;4949318;29;20215;-82
2022/06/21 04:34:10;;;;;;;0.90;0.90;;;;;;;;;;4925774;29;20215;-82
2022/06/21 04:36:40;;;;;;;4.40;2.70;;;;;;;;;;4940919;29;20208;-82
2022/06/21 04:39:12;;;;;;;0.80;0.80;;;;;;;;;;4922108;29;20313;-82
2022/06/21 04:41:42;;;;;;;1.20;1.20;;;;;;;;;;4931608;28;20220;-83
2022/06/21 04:44:20;;;;;;;2.13;1.97;;;;;;;;;;4933361;29;20212;-83
2022/06/21 04:46:55;;;;;;;1.33;1.23;;;;;;;;;;4945978;29;20231;-82
2022/06/21 04:49:26;;;;;;;0.70;0.70;;;;;;;;;;4926221;29;20197;-82
2022/06/21 04:51:56;;;;;;;1.60;1.50;;;;;;;;;;4939842;29;20200;-82
2022/06/21 04:54:26;;;;;;;0.63;0.63;;;;;;;;;;4941316;28;20264;-83
2022/06/21 04:56:59;;;;;;;0.50;0.50;;;;;;;;;;4922372;29;20205;-83
2022/06/21 04:59:30;;;;;;;3.40;1.47;;;;;;;;;;4954892;28;20288;-82
2022/06/21 05:02:00;;;;;;;1.03;0.83;;;;;;;;;;4922649;29;20202;-82
2022/06/21 05:04:30;;;;;;;0.63;0.63;;;;;;;;;;4954351;28;20242;-82
2022/06/21 05:07:00;;;;;;;1.17;1.17;;;;;;;;;;4965553;28;20208;-82
2022/06/21 05:09:30;;;;;;;0.80;0.80;;;;;;;;;;4945003;29;20201;-82
2022/06/21 05:11:59;;;;;;;0.77;0.77;;;;;;;;;;4950844;29;20232;-82
2022/06/21 05:14:30;;;;;;;2.23;2.03;;;;;;;;;;4939585;29;20251;-82
2022/06/21 05:17:00;;;;;;;2.10;2.00;;;;;;;;;;4940965;28;20220;-83
2022/06/21 05:19:31;;;;;;;2.40;2.10;;;;;;;;;;4966420;28;20219;-83
2022/06/21 05:22:02;;;;;;;8.90;1.67;;;;;;;;;;4954535;28;20217;-82
2022/06/21 05:24:31;;;;;;;0.93;0.93;;;;;;;;;;4933691;29;20228;-82
2022/06/21 05:27:09;;;;;;;1.60;1.43;;;;;;;;;;4959675;28;20213;-81
2022/06/21 05:29:42;;;;;;;1.83;1.83;;;;;;;;;;4972815;28;20285;-82
2022/06/21 05:32:15;;;;;;;1.37;1.37;;;;;;;;;;4968130;28;20230;-82
2022/06/21 05:34:46;;;;;;;1.03;1.03;;;;;;;;;;4953645;28;20209;-82
2022/06/21 05:37:19;;;;;;;2.03;1.40;;;;;;;;;;4967184;28;20249;-82
2022/06/21 05:39:49;;;;;;;3.83;1.70;;;;;;;;;;4953511;28;20505;-80
2022/06/21 05:42:19;;;;;;;1.70;1.37;;;;;;;;;;4935235;29;20214;-81
2022/06/21 05:44:50;;;;;;;0.70;0.70;;;;;;;;;;4921955;29;20202;-80
2022/06/21 05:47:22;;;;;;;2.43;2.07;;;;;;;;;;4921630;29;20294;-82
2022/06/21 05:49:51;;;;;;;2.03;1.83;;;;;;;;;;4922121;29;20280;-81
2022/06/21 05:52:21;;;;;;;3.17;1.73;;;;;;;;;;4922029;29;20202;-81
2022/06/21 05:54:51;;;;;;;3.50;2.97;;;;;;;;;;4938634;29;20206;-81
2022/06/21 05:57:22;;;;;;;3.17;2.40;;;;;;;;;;4937665;29;20207;-82
2022/06/21 05:59:51;;;;;;;8.03;2.00;;;;;;;;;;4922370;29;20215;-82
2022/06/21 06:02:23;;;;;;;0.43;0.43;;;;;;;;;;4952124;29;20198;-82
2022/06/21 06:04:55;;;;;;;0.53;0.53;;;;;;;;;;4964632;28;20249;-81
2022/06/21 06:07:25;;;;;;;0.47;0.47;;;;;;;;;;4921422;29;20202;-82
2022/06/21 06:09:56;;;;;;;4.93;1.37;;;;;;;;;;4945130;29;20342;-82
2022/06/21 06:12:27;;;;;;;0.40;0.40;;;;;;;;;;4942308;29;20251;-82
2022/06/21 06:14:59;;;;;;;2.93;2.30;;;;;;;;;;4921927;29;20203;-82
2022/06/21 06:17:32;;;;;;;0.80;0.80;;;;;;;;;;4938165;29;20203;-81
2022/06/21 06:20:02;;;;;;;1.13;1.13;;;;;;;;;;4969459;28;20289;-81
2022/06/21 06:22:37;;;;;;;3.40;3.13;;;;;;;;;;4972339;28;20209;-81
2022/06/21 06:25:11;;;;;;;1.47;1.37;;;;;;;;;;4958413;28;20233;-81
2022/06/21 06:27:45;;;;;;;3.67;2.37;;;;;;;;;;4957123;29;20206;-81
2022/06/21 06:30:15;;;;;;;0.60;0.60;;;;;;;;;;4958475;28;20233;-81
2022/06/21 06:32:47;;;;;;;1.30;1.30;;;;;;;;;;4930725;29;20222;-81
2022/06/21 06:35:17;;;;;;;0.93;0.90;;;;;;;;;;4940260;29;20208;-82
2022/06/21 06:37:46;;;;;;;0.33;0.33;;;;;;;;;;4963252;28;20219;-82
2022/06/21 06:40:19;;;;;;;1.67;1.57;;;;;;;;;;4950528;29;20202;-81
2022/06/21 06:42:49;;;;;;;5.53;3.23;;;;;;;;;;4945205;29;20201;-81
2022/06/21 06:45:19;;;;;;;1.60;1.43;;;;;;;;;;4971689;28;20222;-82
2022/06/21 06:47:50;;;;;;;0.77;0.67;;;;;;;;;;4949217;29;20202;-81
2022/06/21 06:50:22;;;;;;;5.43;2.47;;;;;;;;;;4937449;29;20212;-82
2022/06/21 06:52:52;;;;;;;2.77;1.07;;;;;;;;;;4952393;28;20218;-83
2022/06/21 06:55:24;;;;;;;1.33;1.23;;;;;;;;;;4952756;28;20219;-83
2022/06/21 06:58:16;;;;;;;1.80;1.00;;;;;;;;;;4942477;28;20290;-83
2022/06/21 07:01:04;;;;;;;1.23;1.13;;;;;;;;;;4938050;29;20211;-83
2022/06/21 07:03:37;;;;;;;6.33;3.70;;;;;;;;;;4937307;29;20383;-83
2022/06/21 07:06:08;;;;;;;0.50;0.50;;;;;;;;;;4965029;28;20215;-82
2022/06/21 07:08:43;;;;;;;7.60;3.80;;;;;;;;;;4952069;29;20208;-83
2022/06/21 07:11:14;;;;;;;0.40;0.40;;;;;;;;;;4938461;29;20200;-82
2022/06/21 07:13:43;;;;;;;5.70;3.67;;;;;;;;;;4965018;28;20214;-82
2022/06/21 07:16:13;;;;;;;2.33;2.13;;;;;;;;;;4933119;29;20199;-83
2022/06/21 07:18:45;;;;;;;3.93;3.53;;;;;;;;;;4939129;28;20206;-83
2022/06/21 07:21:15;;;;;;;0.93;0.93;;;;;;;;;;4948298;29;20292;-83
2022/06/21 07:23:44;;;;;;;2.67;1.37;;;;;;;;;;4971336;28;20204;-85
2022/06/21 07:26:17;;;;;;;1.60;1.23;;;;;;;;;;4971014;28;20212;-84
2022/06/21 07:28:47;;;;;;;6.37;4.47;;;;;;;;;;4966393;28;20201;-85
2022/06/21 07:31:18;;;;;;;8.80;3.80;;;;;;;;;;4951503;28;20205;-85
2022/06/21 07:33:53;;;;;;;0.30;0.30;;;;;;;;;;4919712;29;20551;-85
2022/06/21 07:36:25;;;;;;;1.83;1.50;;;;;;;;;;4936938;29;20217;-84
2022/06/21 07:38:55;;;;;;;1.20;1.20;;;;;;;;;;4937409;29;20213;-84
2022/06/21 07:41:27;;;;;;;4.07;2.17;;;;;;;;;;4971047;28;20218;-85
2022/06/21 07:43:58;;;;;;;6.43;5.13;;;;;;;;;;4953221;28;20195;-84
2022/06/21 07:46:28;;;;;;;5.30;3.73;;;;;;;;;;4919933;29;20253;-85
2022/06/21 07:49:01;;;;;;;1.47;1.40;;;;;;;;;;4951739;28;20275;-85
2022/06/21 07:51:33;;;;;;;1.97;0.60;;;;;;;;;;4951227;29;20213;-85
2022/06/21 07:54:03;;;;;;;12.20;2.63;;;;;;;;;;4936260;29;20473;-85
2022/06/21 07:56:35;;;;;;;0.67;0.67;;;;;;;;;;4919331;29;20241;-85
2022/06/21 07:59:05;;;;;;;1.93;1.80;;;;;;;;;;4935184;29;20264;-85
2022/06/21 08:07:32;;;;;;;5.30;3.47;;;;;;;;;;4930983;29;20213;-88
2022/06/21 08:10:27;;;;;;;0.30;0.30;;;;;;;;;;4929149;29;20208;-90
2022/06/21 08:13:20;;;;;;;5.03;2.53;;;;;;;;;;4946668;28;20206;-89
2022/06/21 08:16:13;;;;;;;6.80;1.87;;;;;;;;;;4923254;29;20291;-89
2022/06/21 08:18:48;;;;;;;4.43;2.63;;;;;;;;;;4933633;29;20209;-89
2022/06/21 08:21:31;;;;;;;6.17;4.10;;;;;;;;;;4930932;29;20212;-88
2022/06/21 08:24:07;;;;;;;8.17;1.70;;;;;;;;;;4942578;28;20278;-89
2022/06/21 08:26:39;;;;;;;0.30;0.30;;;;;;;;;;4917505;29;20213;-88
2022/06/21 08:29:15;;;;;;;4.83;1.37;;;;;;;;;;4950915;28;20208;-89
2022/06/21 08:31:47;;;;;;;1.87;1.73;;;;;;;;;;4919608;29;20209;-88
2022/06/21 08:34:20;;;;;;;8.13;2.87;;;;;;;;;;4945028;28;20226;-88
2022/06/21 08:37:09;;;;;;;5.00;2.60;;;;;;;;;;4921453;29;20332;-88
2022/06/21 08:40:24;;;;;;;;;;;;;;;;;;;;;
2022/06/21 08:43:25;;;;;;;3.30;1.33;;;;;;;;;;4927418;29;20325;-91
2022/06/21 08:50:33;;;;;;;5.40;2.47;;;;;;;;;;4892589;29;20214;-92
2022/06/21 08:53:10;;;;;;;1.33;1.23;;;;;;;;;;4937511;29;20210;-91
2022/06/21 08:55:46;;;;;;;4.23;2.23;;;;;;;;;;4927087;29;20215;-88
2022/06/21 08:58:23;;;;;;;1.30;1.30;;;;;;;;;;4944801;28;20214;-91
2022/06/21 09:01:07;;;;;;;2.03;0.53;;;;;;;;;;4951629;28;20203;-91
2022/06/21 09:14:29;;;;;;;1.00;0.83;;;;;;;;;;4848742;29;20232;-92
2022/06/21 09:17:00;;;;;;;3.93;1.50;;;;;;;;;;4859412;29;20272;-93
2022/06/21 09:19:47;;;;;;;1.97;1.80;;;;;;;;;;4938238;29;20280;-91
2022/06/21 09:22:46;;;;;;;;;;;;;;;;;;;;;
2022/06/21 09:26:49;;;;;;;1.00;1.00;;;;;;;;;;4888586;29;20210;-91
2022/06/21 09:30:17;;;;;;;1.97;0.80;;;;;;;;;;4884399;29;20307;-92
2022/06/21 09:33:29;;;;;;;0.57;0.57;;;;;;;;;;4906171;29;20225;-91
2022/06/21 09:39:40;;;;;;;;;;;;;;;;;;;;;
2022/06/21 09:46:10;;;;;;;4.10;2.20;;;;;;;;;;4931608;29;20213;-93
2022/06/21 09:53:44;;;;;;;2.43;1.83;;;;;;;;;;4837662;29;20271;-92
2022/06/21 09:57:16;;;;;;;2.30;2.10;;;;;;;;;;4827325;29;20214;-92
2022/06/21 10:00:54;;;;;;;2.10;1.77;;;;;;;;;;4868719;29;20301;-92
2022/06/21 10:12:06;;;;;;;1.33;1.10;;;;;;;;;;4798519;29;20273;-93
2022/06/21 10:15:11;;;;;;;2.37;2.17;;;;;;;;;;4793787;29;20302;-92
2022/06/21 10:18:06;;;;;;;4.13;1.43;;;;;;;;;;4851867;29;20241;-94
2022/06/21 10:20:48;;;;;;;1.00;1.00;;;;;;;;;;4877303;29;20248;-92
2022/06/21 10:23:40;;;;;;;3.13;2.03;;;;;;;;;;4936399;29;20203;-92
2022/06/21 10:26:59;;;;;;;1.47;1.37;;;;;;;;;;4936727;29;20201;-91
2022/06/21 10:37:38;;;;;;;1.77;1.23;;;;;;;;;;4777976;29;20214;-89
2022/06/21 10:44:20;;;;;;;;;;;;;;;;;;;;;
2022/06/21 10:47:12;;;;;;;2.20;0.90;;;;;;;;;;4919228;29;20258;-91
2022/06/21 11:01:52;;;;;;;1.80;1.67;;;;;;;;;;4717379;30;20213;-94
2022/06/21 11:04:52;;;;;;;3.20;2.37;;;;;;;;;;4815525;29;20247;-92
2022/06/21 11:07:39;;;;;;;1.40;1.00;;;;;;;;;;4814339;29;20224;-92
2022/06/21 11:10:39;;;;;;;1.23;1.13;;;;;;;;;;4853898;29;20220;-94
2022/06/21 11:13:51;;;;;;;2.57;1.97;;;;;;;;;;4842135;29;20252;-90
2022/06/21 11:16:53;;;;;;;1.50;1.43;;;;;;;;;;4856668;29;20304;-91
2022/06/21 11:20:13;;;;;;;1.63;1.17;;;;;;;;;;4833407;29;20297;-90
2022/06/21 11:23:27;;;;;;;1.20;1.10;;;;;;;;;;4855802;29;20208;-89
2022/06/21 11:29:38;;;;;;;0.67;0.67;;;;;;;;;;4918599;29;20266;-90
2022/06/21 11:32:38;;;;;;;6.37;2.37;;;;;;;;;;4903000;29;20203;-90
2022/06/21 11:35:38;;;;;;;1.20;1.10;;;;;;;;;;4916138;29;20256;-90
2022/06/21 11:38:17;;;;;;;0.90;0.90;;;;;;;;;;4912031;29;20204;-90
2022/06/21 11:41:16;;;;;;;3.33;1.70;;;;;;;;;;4915061;29;20245;-90
2022/06/21 11:44:23;;;;;;;11.23;2.87;;;;;;;;;;4901321;29;20207;-90
2022/06/21 11:47:21;;;;;;;4.30;3.10;;;;;;;;;;4916372;29;20207;-89
2022/06/21 11:50:40;;;;;;;15.57;1.43;;;;;;;;;;4821142;29;20319;-89
2022/06/21 11:53:34;;;;;;;0.80;0.80;;;;;;;;;;4872412;29;20225;-91
2022/06/21 11:56:08;;;;;;;4.37;1.90;;;;;;;;;;4920619;29;20222;-89
2022/06/21 11:58:48;;;;;;;1.10;1.10;;;;;;;;;;4927061;29;20289;-91
2022/06/21 12:01:34;;;;;;;1.40;1.30;;;;;;;;;;4902024;29;20307;-90
2022/06/21 12:04:23;;;;;;;3.33;1.70;;;;;;;;;;4908112;29;20231;-90
2022/06/21 12:07:05;;;;;;;0.97;0.97;;;;;;;;;;4942475;29;20191;-90
2022/06/21 12:17:38;;;;;;;0.40;0.40;;;;;;;;;;4787077;29;20242;-91
2022/06/21 12:20:53;;;;;;;2.87;1.70;;;;;;;;;;4842147;29;20219;-91
2022/06/21 12:37:31;;;;;;;3.17;2.07;;;;;;;;;;4803724;29;20234;-91
2022/06/21 12:44:08;;;;;;;8.53;3.67;;;;;;;;;;4772659;29;20218;-87
2022/06/21 12:46:45;;;;;;;0.93;0.93;;;;;;;;;;4797047;29;20279;-87
2022/06/21 12:49:53;;;;;;;6.30;2.50;;;;;;;;;;4803798;29;20213;-89
2022/06/21 12:56:42;;;;;;;4.83;1.90;;;;;;;;;;4844661;29;20237;-89
2022/06/21 12:59:22;;;;;;;0.93;0.90;;;;;;;;;;4897679;29;20210;-88
2022/06/21 13:02:07;;;;;;;9.87;3.53;;;;;;;;;;4885912;29;20208;-89
2022/06/21 13:04:58;;;;;;;2.87;2.13;;;;;;;;;;4881919;29;20284;-89
2022/06/21 13:08:00;;;;;;;9.80;3.57;;;;;;;;;;4937570;29;20202;-88
2022/06/21 13:10:41;;;;;;;4.23;3.50;;;;;;;;;;4954730;28;20221;-88
2022/06/21 13:13:23;;;;;;;5.57;3.00;;;;;;;;;;4954887;28;20240;-87
2022/06/21 13:16:01;;;;;;;8.50;2.50;;;;;;;;;;4941381;29;20211;-88
2022/06/21 13:19:00;;;;;;;4.77;2.43;;;;;;;;;;4930429;29;20299;-89
2022/06/21 13:28:16;;;;;;;0.73;0.57;;;;;;;;;;4948048;28;20212;-87
2022/06/21 13:34:41;;;;;;;1.87;1.77;;;;;;;;;;4935050;28;20208;-88
2022/06/21 13:37:17;;;;;;;1.17;0.90;;;;;;;;;;4956751;28;20227;-88
2022/06/21 13:39:55;;;;;;;5.57;2.87;;;;;;;;;;4940731;29;20220;-90
2022/06/21 13:42:46;;;;;;;4.97;2.20;;;;;;;;;;4926376;29;20268;-89
2022/06/21 13:45:52;;;;;;;1.03;1.00;;;;;;;;;;4941302;29;20219;-90
2022/06/21 13:48:35;;;;;;;0.30;0.30;;;;;;;;;;4950695;28;20304;-89
2022/06/21 13:51:08;;;;;;;0.80;0.80;;;;;;;;;;4951922;28;20215;-89
2022/06/21 13:53:59;;;;;;;4.63;3.03;;;;;;;;;;4925042;29;20219;-89
2022/06/21 13:56:43;;;;;;;4.30;3.10;;;;;;;;;;4950900;28;20225;-89
2022/06/21 13:59:27;;;;;;;4.33;2.90;;;;;;;;;;4951977;28;20209;-91
2022/06/21 14:02:11;;;;;;;11.07;3.47;;;;;;;;;;4954740;28;20215;-89
2022/06/21 14:04:56;;;;;;;2.87;2.67;;;;;;;;;;4951040;28;20326;-89
2022/06/21 14:08:24;;;;;;;3.07;2.27;;;;;;;;;;4946117;29;20205;-88
2022/06/21 14:11:53;;;;;;;5.70;3.30;;;;;;;;;;4825747;29;20277;-89
2022/06/21 14:18:02;;;;;;;5.43;1.33;;;;;;;;;;4844355;29;20387;-89
2022/06/21 14:20:58;;;;;;;1.77;1.23;;;;;;;;;;4845519;29;20220;-90
2022/06/21 14:23:33;;;;;;;19.80;1.73;;;;;;;;;;4845781;29;20241;-89
2022/06/21 14:26:13;;;;;;;2.47;1.47;;;;;;;;;;4844661;29;20203;-88
2022/06/21 14:29:14;;;;;;;3.00;2.80;;;;;;;;;;4843437;29;20211;-88
2022/06/21 14:32:03;;;;;;;9.63;3.43;;;;;;;;;;4843247;29;20214;-89
2022/06/21 14:35:02;;;;;;;2.37;2.17;;;;;;;;;;4862968;29;20275;-90
2022/06/21 14:37:48;;;;;;;1.10;1.10;;;;;;;;;;4847164;29;20241;-90
2022/06/21 14:40:49;;;;;;;2.10;2.00;;;;;;;;;;4853800;29;20211;-91
2022/06/21 14:43:32;;;;;;;1.43;0.90;;;;;;;;;;4851452;29;20213;-90
2022/06/21 14:47:03;;;;;;;4.57;0.97;;;;;;;;;;4850247;29;20298;-90
2022/06/21 14:49:52;;;;;;;2.13;1.60;;;;;;;;;;4922874;29;20562;-91
2022/06/21 14:52:45;;;;;;;1.87;1.13;;;;;;;;;;4932005;29;20232;-91
2022/06/21 14:55:25;;;;;;;4.80;2.60;;;;;;;;;;4937710;29;20204;-90
2022/06/21 14:58:25;;;;;;;1.43;1.33;;;;;;;;;;4927593;29;20224;-91
2022/06/21 15:01:07;;;;;;;4.80;1.97;;;;;;;;;;4920375;29;20215;-89
2022/06/21 15:03:38;;;;;;;2.60;1.83;;;;;;;;;;4950722;28;20236;-89
2022/06/21 15:06:15;;;;;;;1.73;1.63;;;;;;;;;;4948948;28;20263;-90
2022/06/21 15:08:47;;;;;;;4.93;2.97;;;;;;;;;;4911683;29;20622;-89
2022/06/21 15:11:20;;;;;;;4.03;2.17;;;;;;;;;;4936643;29;20206;-89
2022/06/21 15:13:54;;;;;;;4.90;1.70;;;;;;;;;;4922995;29;20211;-89
2022/06/21 15:16:25;;;;;;;2.83;1.13;;;;;;;;;;4921750;29;20216;-88
2022/06/21 15:18:59;;;;;;;4.73;2.73;;;;;;;;;;4924869;29;20199;-93
2022/06/21 15:25:00;;;;;;;3.37;2.83;;;;;;;;;;4917968;29;20208;-89
2022/06/21 15:27:33;;;;;;;1.73;1.47;;;;;;;;;;4946168;29;20347;-86
2022/06/21 15:30:09;;;;;;;5.97;2.90;;;;;;;;;;4920927;29;20206;-88
2022/06/21 15:32:41;;;;;;;3.13;2.27;;;;;;;;;;4947665;28;20230;-89
2022/06/21 15:35:10;;;;;;;3.73;1.90;;;;;;;;;;4930451;29;20203;-91
2022/06/21 15:37:42;;;;;;;0.50;0.50;;;;;;;;;;4921788;29;20223;-89
2022/06/21 15:43:24;;;;;;;2.23;2.03;;;;;;;;;;4937030;28;20199;-87
2022/06/21 15:45:55;;;;;;;2.53;2.20;;;;;;;;;;4942618;29;20214;-91
2022/06/21 15:51:16;;;;;;;2.57;2.33;;;;;;;;;;4962686;28;20300;-90
2022/06/21 15:54:02;;;;;;;4.30;2.10;;;;;;;;;;4941979;29;20212;-89
2022/06/21 15:56:44;;;;;;;5.07;2.90;;;;;;;;;;4937808;29;20208;-88
2022/06/21 15:59:24;;;;;;;3.37;1.93;;;;;;;;;;4936028;29;20216;-88
2022/06/21 16:01:58;;;;;;;4.13;2.50;;;;;;;;;;4947704;29;20206;-89
2022/06/21 16:04:31;;;;;;;1.60;1.00;;;;;;;;;;4926914;29;20339;-90
2022/06/21 16:07:01;;;;;;;2.33;1.70;;;;;;;;;;4935175;29;20300;-87
2022/06/21 16:09:30;;;;;;;1.50;1.40;;;;;;;;;;4932148;29;20207;-87
2022/06/21 16:12:02;;;;;;;10.40;3.13;;;;;;;;;;4949781;28;20209;-88
2022/06/21 16:14:34;;;;;;;3.23;2.93;;;;;;;;;;4929794;29;20281;-87
2022/06/21 16:17:05;;;;;;;1.30;1.20;;;;;;;;;;4949929;28;20217;-88
2022/06/21 16:19:33;;;;;;;2.40;2.20;;;;;;;;;;4920014;29;20326;-87
2022/06/21 16:22:02;;;;;;;3.23;2.93;;;;;;;;;;4953897;28;20224;-88
2022/06/21 16:24:38;;;;;;;1.53;1.43;;;;;;;;;;4933559;29;20207;-84
2022/06/21 16:27:09;;;;;;;5.50;2.90;;;;;;;;;;4933762;29;20223;-84
2022/06/21 16:29:42;;;;;;;2.50;1.83;;;;;;;;;;4934632;29;20208;-84
2022/06/21 16:35:03;;;;;;;3.33;2.70;;;;;;;;;;4935962;29;20223;-84
2022/06/21 16:37:35;;;;;;;3.50;2.07;;;;;;;;;;4935882;29;20210;-84
2022/06/21 16:40:05;;;;;;;2.23;1.90;;;;;;;;;;4934187;29;20201;-84
2022/06/21 16:45:27;;;;;;;2.77;1.93;;;;;;;;;;4935823;29;20209;-84
2022/06/21 16:47:59;;;;;;;4.47;2.53;;;;;;;;;;4933702;29;20213;-83
2022/06/21 16:50:31;;;;;;;2.00;1.87;;;;;;;;;;4934109;29;20202;-83
2022/06/21 16:53:16;;;;;;;4.07;1.50;;;;;;;;;;4936067;29;20215;-83
2022/06/21 16:55:51;;;;;;;6.20;3.03;;;;;;;;;;4934403;29;20230;-84
2022/06/21 16:58:20;;;;;;;2.83;2.63;;;;;;;;;;4950747;28;20273;-83
2022/06/21 17:00:55;;;;;;;6.20;3.50;;;;;;;;;;4949784;28;20206;-83
2022/06/21 17:03:33;;;;;;;3.20;1.97;;;;;;;;;;4934468;29;20245;-83
2022/06/21 17:06:02;;;;;;;4.50;1.60;;;;;;;;;;4950820;28;20236;-83
2022/06/21 17:08:31;;;;;;;2.43;1.87;;;;;;;;;;4949730;28;20198;-84
2022/06/21 17:13:47;;;;;;;2.03;1.80;;;;;;;;;;4929952;29;20276;-84
2022/06/21 17:16:24;;;;;;;1.40;1.20;;;;;;;;;;4955157;28;20203;-84
2022/06/21 17:18:58;;;;;;;2.77;1.77;;;;;;;;;;4969100;28;20237;-84
2022/06/21 17:21:29;;;;;;;3.03;1.87;;;;;;;;;;4939306;29;20218;-84
2022/06/21 17:24:04;;;;;;;2.30;1.03;;;;;;;;;;4953966;29;20213;-84
2022/06/21 17:26:37;;;;;;;2.93;1.63;;;;;;;;;;4939486;29;20210;-84
2022/06/21 17:29:07;;;;;;;0.53;0.50;;;;;;;;;;4957584;28;20202;-84
2022/06/21 17:31:40;;;;;;;1.37;1.27;;;;;;;;;;4922995;29;20210;-84
2022/06/21 17:34:13;;;;;;;3.53;1.57;;;;;;;;;;4934697;29;20234;-84
2022/06/21 17:36:47;;;;;;;1.20;1.13;;;;;;;;;;4948258;29;20205;-84
2022/06/21 17:39:18;;;;;;;2.43;1.70;;;;;;;;;;4934734;29;20218;-84
2022/06/21 17:41:51;;;;;;;4.13;1.27;;;;;;;;;;4927825;29;20195;-84
2022/06/21 17:44:23;;;;;;;2.83;1.93;;;;;;;;;;4949551;28;20308;-84
2022/06/21 17:46:55;;;;;;;2.43;1.77;;;;;;;;;;4934253;29;20199;-84
2022/06/21 17:49:26;;;;;;;3.90;1.57;;;;;;;;;;4959393;28;20280;-84
2022/06/21 17:51:55;;;;;;;3.77;1.60;;;;;;;;;;4939725;29;20284;-84
2022/06/21 17:54:28;;;;;;;2.17;2.03;;;;;;;;;;4920848;29;20206;-84
2022/06/21 17:57:00;;;;;;;3.00;1.53;;;;;;;;;;4920735;29;20198;-83
2022/06/21 17:59:30;;;;;;;3.63;2.27;;;;;;;;;;4946706;29;20223;-84
2022/06/21 18:02:05;;;;;;;3.13;2.43;;;;;;;;;;4941511;29;20205;-84
2022/06/21 18:04:37;;;;;;;1.60;1.50;;;;;;;;;;4890558;29;1123322;-83